createdAt,value
2022-10-16T00:01:44.463Z,4.25
2022-10-16T00:04:11.748Z,6.85
2022-10-16T00:06:39.193Z,4.53
2022-10-16T00:09:07.456Z,5.60
2022-10-16T00:11:40.630Z,4.35
2022-10-16T00:14:13.116Z,4.88
2022-10-16T00:16:40.740Z,4.07
2022-10-16T00:19:08.017Z,4.75
2022-10-16T00:21:35.695Z,5.47
2022-10-16T00:24:09.718Z,6.77
2022-10-16T00:26:38.716Z,3.65
2022-10-16T00:29:06.582Z,5.50
2022-10-16T00:31:34.090Z,4.18
2022-10-16T00:34:01.589Z,4.25
2022-10-16T00:36:29.001Z,4.50
2022-10-16T00:41:33.506Z,3.83
2022-10-16T00:44:22.662Z,6.22
2022-10-16T00:47:05.177Z,2.77
2022-10-16T00:49:32.364Z,4.18
2022-10-16T00:51:59.594Z,4.43
2022-10-16T00:54:32.143Z,5.40
2022-10-16T00:57:05.179Z,5.60
2022-10-16T00:59:37.502Z,5.67
2022-10-16T01:02:08.174Z,3.10
2022-10-16T01:04:47.217Z,4.73
2022-10-16T01:07:51.128Z,3.67
2022-10-16T01:10:36.524Z,4.30
2022-10-16T01:13:28.838Z,2.30
2022-10-16T01:16:43.521Z,3.87
2022-10-16T01:19:49.501Z,2.83
2022-10-16T01:22:17.849Z,5.87
2022-10-16T01:24:50.903Z,4.90
2022-10-16T01:27:30.065Z,5.17
2022-10-16T01:30:26.033Z,2.90
2022-10-16T01:33:33.523Z,4.60
2022-10-16T01:36:14.355Z,5.43
2022-10-16T01:38:44.439Z,3.03
2022-10-16T01:41:28.894Z,5.70
2022-10-16T01:44:26.093Z,4.23
2022-10-16T01:46:55.212Z,3.50
2022-10-16T01:49:27.025Z,3.50
2022-10-16T01:54:34.574Z,3.30
2022-10-16T01:57:03.599Z,2.17
2022-10-16T01:59:33.650Z,4.07
2022-10-16T02:02:07.421Z,2.37
2022-10-16T02:04:49.773Z,2.25
2022-10-16T02:07:17.650Z,4.07
2022-10-16T02:09:45.026Z,3.63
2022-10-16T02:12:46.669Z,2.85
2022-10-16T02:15:13.767Z,3.10
2022-10-16T02:17:40.867Z,2.15
2022-10-16T02:20:08.506Z,2.25
2022-10-16T02:22:47.794Z,2.10
2022-10-16T02:25:21.158Z,2.30
2022-10-16T02:28:20.717Z,5.93
2022-10-16T02:30:59.813Z,1.83
2022-10-16T02:33:28.715Z,2.60
2022-10-16T02:35:56.683Z,1.70
2022-10-16T02:38:26.161Z,5.77
2022-10-16T02:40:54.049Z,1.60
2022-10-16T02:43:21.175Z,1.98
2022-10-16T02:45:48.224Z,3.20
2022-10-16T02:48:15.877Z,1.83
2022-10-16T02:50:42.907Z,3.95
2022-10-16T02:53:09.872Z,2.90
2022-10-16T02:55:36.889Z,2.90
2022-10-16T02:58:04.005Z,1.50
2022-10-16T03:00:31.037Z,1.67
2022-10-16T03:02:58.084Z,2.50
2022-10-16T03:05:25.068Z,2.83
2022-10-16T03:07:53.635Z,4.30
2022-10-16T03:10:20.767Z,1.10
2022-10-16T03:12:47.718Z,4.83
2022-10-16T03:15:14.751Z,4.13
2022-10-16T03:17:41.802Z,1.40
2022-10-16T03:20:09.142Z,2.27
2022-10-16T03:22:36.137Z,3.22
2022-10-16T03:25:03.286Z,1.80
2022-10-16T03:27:30.275Z,4.70
2022-10-16T03:29:57.304Z,4.40
2022-10-16T03:32:25.974Z,3.90
2022-10-16T03:34:55.176Z,1.87
2022-10-16T03:37:22.188Z,2.10
2022-10-16T03:39:49.156Z,4.47
2022-10-16T03:42:16.162Z,4.90
2022-10-16T03:44:43.136Z,5.77
2022-10-16T03:47:10.176Z,4.17
2022-10-16T03:49:37.111Z,2.90
2022-10-16T03:52:04.119Z,2.45
2022-10-16T03:54:31.135Z,4.40
2022-10-16T03:56:58.120Z,1.93
2022-10-16T03:59:25.136Z,3.10
2022-10-16T04:01:52.081Z,8.07
2022-10-16T04:04:19.208Z,4.05
2022-10-16T04:06:46.357Z,2.17
2022-10-16T04:09:15.906Z,4.25
2022-10-16T04:11:42.894Z,5.13
2022-10-16T04:14:10.037Z,2.70
2022-10-16T04:16:36.987Z,5.68
2022-10-16T04:19:04.104Z,3.90
2022-10-16T04:21:31.100Z,2.50
2022-10-16T04:23:58.149Z,4.25
2022-10-16T04:26:25.178Z,3.90
2022-10-16T04:28:52.172Z,3.37
2022-10-16T04:31:19.598Z,6.25
2022-10-16T04:33:46.786Z,6.60
2022-10-16T04:36:14.615Z,1.50
2022-10-16T04:38:41.680Z,5.97
2022-10-16T04:41:08.880Z,2.37
2022-10-16T04:43:36.265Z,4.70
2022-10-16T04:46:05.585Z,4.05
2022-10-16T04:48:33.466Z,2.80
2022-10-16T04:51:00.746Z,2.42
2022-10-16T04:53:27.883Z,2.80
2022-10-16T04:55:55.251Z,5.60
2022-10-16T04:58:22.253Z,2.93
2022-10-16T05:00:49.344Z,3.03
2022-10-16T05:03:16.397Z,4.87
2022-10-16T05:05:48.280Z,2.28
2022-10-16T05:08:17.418Z,3.53
2022-10-16T05:10:45.523Z,2.97
2022-10-16T05:13:13.086Z,1.75
2022-10-16T05:15:40.417Z,3.60
2022-10-16T05:18:07.396Z,4.40
2022-10-16T05:20:34.368Z,4.22
2022-10-16T05:23:01.532Z,3.92
2022-10-16T05:25:28.625Z,3.75
2022-10-16T05:27:55.675Z,1.97
2022-10-16T05:30:22.833Z,4.32
2022-10-16T05:32:52.476Z,5.97
2022-10-16T05:35:20.680Z,4.80
2022-10-16T05:37:48.311Z,3.03
2022-10-16T05:40:15.942Z,2.85
2022-10-16T05:42:42.934Z,6.88
2022-10-16T05:45:13.121Z,4.53
2022-10-16T05:47:40.810Z,2.78
2022-10-16T05:50:08.751Z,2.13
2022-10-16T05:52:35.834Z,4.57
2022-10-16T05:55:03.275Z,1.70
2022-10-16T05:57:30.939Z,5.30
2022-10-16T05:59:58.071Z,4.05
2022-10-16T06:02:25.051Z,2.85
2022-10-16T06:04:54.838Z,3.97
2022-10-16T06:07:22.776Z,2.55
2022-10-16T06:09:53.664Z,4.17
2022-10-16T06:12:21.082Z,3.50
2022-10-16T06:14:48.258Z,3.60
2022-10-16T06:17:16.000Z,6.07
2022-10-16T06:19:43.270Z,4.73
2022-10-16T06:22:10.747Z,3.65
2022-10-16T06:24:37.771Z,3.10
2022-10-16T06:27:05.724Z,6.63
2022-10-16T06:29:32.742Z,2.70
2022-10-16T06:32:00.000Z,3.47
2022-10-16T06:34:27.008Z,4.73
2022-10-16T06:36:53.964Z,4.97
2022-10-16T06:39:20.966Z,2.10
2022-10-16T06:41:48.132Z,5.05
2022-10-16T06:44:15.253Z,7.50
2022-10-16T06:46:42.338Z,3.88
2022-10-16T06:49:09.336Z,3.90
2022-10-16T06:51:40.491Z,5.13
2022-10-16T06:54:10.170Z,2.88
2022-10-16T06:56:37.301Z,4.50
2022-10-16T06:59:04.673Z,5.28
2022-10-16T07:01:32.248Z,3.55
2022-10-16T07:03:59.833Z,3.20
2022-10-16T07:06:28.480Z,3.30
2022-10-16T07:08:55.546Z,3.13
2022-10-16T07:11:24.986Z,5.20
2022-10-16T07:13:55.001Z,4.82
2022-10-16T07:16:30.122Z,5.32
2022-10-16T07:19:00.554Z,6.22
2022-10-16T07:21:32.483Z,6.35
2022-10-16T07:24:02.339Z,4.53
2022-10-16T07:26:32.463Z,4.43
2022-10-16T07:29:00.027Z,6.03
2022-10-16T07:31:28.229Z,4.43
2022-10-16T07:33:55.639Z,5.05
2022-10-16T07:36:23.110Z,3.65
2022-10-16T07:38:52.778Z,5.18
2022-10-16T07:41:22.637Z,6.82
2022-10-16T07:43:52.690Z,5.10
2022-10-16T07:46:22.588Z,6.60
2022-10-16T07:48:50.004Z,5.57
2022-10-16T07:51:20.627Z,3.53
2022-10-16T07:53:48.762Z,2.90
2022-10-16T07:56:18.085Z,3.85
2022-10-16T07:58:46.332Z,4.07
2022-10-16T08:01:16.863Z,5.03
2022-10-16T08:03:45.917Z,7.60
2022-10-16T08:06:12.937Z,5.05
2022-10-16T08:08:39.998Z,7.32
2022-10-16T08:11:07.134Z,6.43
2022-10-16T08:13:34.157Z,6.00
2022-10-16T08:16:01.389Z,3.95
2022-10-16T08:18:28.447Z,5.63
2022-10-16T08:21:01.081Z,4.10
2022-10-16T08:23:29.317Z,3.80
2022-10-16T08:26:02.355Z,4.15
2022-10-16T08:28:29.586Z,3.97
2022-10-16T08:30:57.953Z,3.97
2022-10-16T08:33:25.091Z,5.85
2022-10-16T08:35:55.379Z,3.97
2022-10-16T08:38:22.482Z,2.22
2022-10-16T08:40:52.770Z,4.55
2022-10-16T08:43:20.616Z,6.97
2022-10-16T08:46:49.732Z,2.55
2022-10-16T08:49:18.955Z,4.63
2022-10-16T08:51:47.622Z,7.30
2022-10-16T08:54:29.487Z,6.68
2022-10-16T08:57:12.932Z,6.00
2022-10-16T08:59:40.124Z,4.63
2022-10-16T09:02:38.545Z,4.45
2022-10-16T09:05:43.360Z,2.70
2022-10-16T09:08:22.177Z,5.50
2022-10-16T09:11:06.233Z,4.25
2022-10-16T09:14:04.988Z,4.50
2022-10-16T09:16:37.962Z,3.85
2022-10-16T09:19:35.019Z,4.50
2022-10-16T09:22:17.143Z,4.60
2022-10-16T09:24:44.330Z,6.07
2022-10-16T09:27:15.924Z,7.70
2022-10-16T09:29:43.043Z,3.38
2022-10-16T09:32:19.107Z,7.00
2022-10-16T09:34:53.680Z,1.80
2022-10-16T09:37:24.203Z,7.22
2022-10-16T09:39:55.516Z,5.43
2022-10-16T09:42:43.094Z,4.72
2022-10-16T09:45:24.375Z,7.07
2022-10-16T09:47:54.101Z,4.97
2022-10-16T09:50:28.351Z,4.97
2022-10-16T09:53:13.992Z,4.50
2022-10-16T09:55:52.502Z,6.03
2022-10-16T09:58:23.460Z,4.45
2022-10-16T10:00:54.825Z,5.93
2022-10-16T10:03:44.754Z,4.80
2022-10-16T10:06:29.095Z,5.65
2022-10-16T10:08:58.635Z,4.38
2022-10-16T10:11:46.020Z,6.90
2022-10-16T10:14:24.946Z,8.38
2022-10-16T10:17:02.478Z,3.47
2022-10-16T10:19:32.783Z,3.55
2022-10-16T10:22:00.109Z,4.45
2022-10-16T10:24:27.135Z,5.82
2022-10-16T10:27:15.578Z,4.82
2022-10-16T10:30:06.234Z,5.47
2022-10-16T10:33:19.825Z,4.72
2022-10-16T10:36:02.748Z,3.58
2022-10-16T10:38:59.727Z,6.93
2022-10-16T10:42:01.854Z,3.88
2022-10-16T10:44:58.427Z,7.05
2022-10-16T10:47:46.411Z,5.93
2022-10-16T10:51:41.909Z,8.48
2022-10-16T10:54:18.977Z,5.47
2022-10-16T10:57:03.876Z,7.60
2022-10-16T10:59:59.999Z,6.55
2022-10-16T11:02:38.568Z,3.65
2022-10-16T11:05:27.454Z,3.90
2022-10-16T11:08:29.088Z,8.00
2022-10-16T11:11:06.993Z,8.55
2022-10-16T11:13:52.726Z,7.30
2022-10-16T11:16:37.851Z,10.10
2022-10-16T11:19:40.780Z,6.70
2022-10-16T11:22:18.039Z,7.10
2022-10-16T11:25:14.112Z,6.65
2022-10-16T11:28:02.250Z,4.78
2022-10-16T11:30:35.260Z,8.30
2022-10-16T11:33:32.338Z,6.47
2022-10-16T11:36:43.036Z,5.63
2022-10-16T11:39:29.715Z,7.72
2022-10-16T11:42:18.152Z,8.25
2022-10-16T11:45:20.660Z,3.83
2022-10-16T11:48:03.565Z,4.35
2022-10-16T11:50:58.320Z,7.18
2022-10-16T11:53:58.566Z,4.97
2022-10-16T11:56:26.354Z,3.72
2022-10-16T11:58:53.408Z,4.40
2022-10-16T12:02:36.713Z,3.50
2022-10-16T12:05:37.036Z,8.82
2022-10-16T12:08:16.601Z,5.47
2022-10-16T12:10:47.917Z,4.32
2022-10-16T12:13:36.742Z,4.03
2022-10-16T12:16:13.187Z,5.07
2022-10-16T12:18:43.017Z,3.03
2022-10-16T12:21:14.448Z,3.28
2022-10-16T12:23:55.564Z,3.83
2022-10-16T12:26:45.526Z,3.90
2022-10-16T12:29:43.741Z,3.95
2022-10-16T12:32:47.410Z,3.70
2022-10-16T12:35:28.528Z,4.30
2022-10-16T12:38:06.220Z,3.72
2022-10-16T12:40:37.297Z,3.83
2022-10-16T12:43:28.896Z,3.38
2022-10-16T12:46:05.834Z,4.28
2022-10-16T12:48:48.229Z,9.85
2022-10-16T12:51:30.275Z,5.60
2022-10-16T12:54:18.002Z,6.78
2022-10-16T12:57:06.727Z,2.75
2022-10-16T13:00:15.882Z,4.45
2022-10-16T13:03:20.535Z,6.28
2022-10-16T13:06:09.487Z,3.65
2022-10-16T13:08:45.430Z,4.22
2022-10-16T13:11:33.524Z,4.05
2022-10-16T13:14:04.301Z,5.07
2022-10-16T13:16:52.416Z,4.30
2022-10-16T13:19:50.503Z,3.97
2022-10-16T13:22:26.009Z,2.63
2022-10-16T13:25:45.199Z,4.53
2022-10-16T13:28:14.043Z,3.50
2022-10-16T13:30:52.693Z,3.75
2022-10-16T13:33:37.529Z,2.05
2022-10-16T13:36:06.381Z,2.35
2022-10-16T13:38:38.573Z,4.47
2022-10-16T13:41:15.662Z,5.93
2022-10-16T13:43:57.587Z,2.60
2022-10-16T13:46:26.783Z,2.70
2022-10-16T13:49:18.176Z,4.78
2022-10-16T13:52:00.120Z,2.92
2022-10-16T13:54:29.905Z,2.28
2022-10-16T13:57:03.090Z,3.90
2022-10-16T13:59:41.382Z,3.72
2022-10-16T14:02:27.699Z,3.03
2022-10-16T14:04:55.854Z,2.78
2022-10-16T14:07:34.118Z,4.90
2022-10-16T14:10:26.584Z,3.08
2022-10-16T14:13:07.061Z,4.35
2022-10-16T14:15:37.672Z,3.95
2022-10-16T14:18:05.352Z,3.85
2022-10-16T14:20:35.667Z,5.10
2022-10-16T14:23:20.373Z,3.58
2022-10-16T14:25:48.128Z,4.20
2022-10-16T14:28:22.372Z,7.75
2022-10-16T14:31:01.719Z,4.63
2022-10-16T14:33:31.804Z,3.75
2022-10-16T14:36:04.205Z,2.85
2022-10-16T14:38:33.993Z,3.05
2022-10-16T14:41:01.441Z,5.75
2022-10-16T14:43:37.479Z,3.83
2022-10-16T14:46:18.542Z,3.03
2022-10-16T14:48:50.929Z,1.15
2022-10-16T14:51:21.727Z,4.40
2022-10-16T14:53:48.831Z,6.32
2022-10-16T14:56:26.153Z,2.85
2022-10-16T14:58:54.446Z,3.15
2022-10-16T15:01:21.522Z,3.33
2022-10-16T15:03:55.991Z,2.00
2022-10-16T15:06:23.266Z,3.88
2022-10-16T15:08:50.368Z,3.55
2022-10-16T15:11:19.928Z,2.30
2022-10-16T15:13:47.493Z,3.17
2022-10-16T15:16:17.866Z,4.97
2022-10-16T15:18:45.409Z,1.75
2022-10-16T15:21:33.739Z,3.08
2022-10-16T15:24:01.634Z,2.22
2022-10-16T15:26:31.472Z,4.03
2022-10-16T15:28:58.977Z,2.65
2022-10-16T15:31:26.235Z,2.25
2022-10-16T15:33:59.018Z,3.42
2022-10-16T15:36:30.750Z,1.20
2022-10-16T15:38:58.253Z,4.95
2022-10-16T15:41:25.774Z,2.83
2022-10-16T15:43:53.369Z,5.60
2022-10-16T15:46:24.328Z,1.55
2022-10-16T15:48:56.769Z,4.10
2022-10-16T15:51:23.795Z,5.80
2022-10-16T15:53:52.080Z,6.18
2022-10-16T15:56:19.128Z,6.72
2022-10-16T15:58:46.791Z,4.20
2022-10-16T16:01:13.978Z,3.35
2022-10-16T16:03:41.518Z,6.60
2022-10-16T16:06:12.254Z,6.05
2022-10-16T16:08:40.206Z,5.03
2022-10-16T16:11:16.139Z,4.85
2022-10-16T16:13:43.506Z,3.40
2022-10-16T16:16:13.690Z,2.65
2022-10-16T16:18:41.961Z,5.30
2022-10-16T16:21:11.244Z,6.10
2022-10-16T16:23:38.631Z,3.97
2022-10-16T16:26:26.988Z,6.18
2022-10-16T16:28:56.731Z,5.63
2022-10-16T16:31:32.510Z,3.67
2022-10-16T16:33:59.779Z,3.72
2022-10-16T16:36:27.066Z,5.70
2022-10-16T16:38:54.176Z,5.43
2022-10-16T16:41:27.955Z,4.97
2022-10-16T16:43:55.849Z,5.90
2022-10-16T16:46:23.691Z,4.10
2022-10-16T16:48:51.450Z,4.40
2022-10-16T16:51:20.744Z,4.35
2022-10-16T16:53:53.822Z,4.80
2022-10-16T16:56:23.428Z,4.35
2022-10-16T16:58:53.051Z,6.20
2022-10-16T17:01:21.958Z,4.80
2022-10-16T17:03:52.938Z,4.57
2022-10-16T17:06:22.705Z,4.57
2022-10-16T17:08:51.145Z,3.08
2022-10-16T17:11:25.556Z,4.60
2022-10-16T17:13:56.762Z,5.35
2022-10-16T17:16:36.424Z,3.85
2022-10-16T17:19:09.841Z,5.78
2022-10-16T17:21:37.657Z,4.80
2022-10-16T17:24:05.500Z,4.30
2022-10-16T17:26:33.030Z,9.27
2022-10-16T17:29:02.353Z,8.20
2022-10-16T17:31:33.398Z,6.53
2022-10-16T17:34:02.245Z,6.35
2022-10-16T17:36:34.059Z,8.52
2022-10-16T17:39:07.972Z,3.38
2022-10-16T17:41:37.047Z,5.38
2022-10-16T17:44:06.154Z,7.53
2022-10-16T17:46:37.094Z,3.47
2022-10-16T17:49:11.134Z,7.43
2022-10-16T17:51:38.399Z,7.05
2022-10-16T17:54:07.373Z,3.63
2022-10-16T17:56:34.676Z,5.70
2022-10-16T17:59:03.314Z,4.85
2022-10-16T18:01:36.948Z,4.47
2022-10-16T18:04:12.375Z,3.75
2022-10-16T18:06:41.546Z,5.57
2022-10-16T18:09:10.740Z,4.10
2022-10-16T18:11:38.496Z,10.88
2022-10-16T18:14:05.716Z,10.85
2022-10-16T18:16:35.518Z,14.50
2022-10-16T18:19:02.982Z,12.00
2022-10-16T18:21:32.293Z,14.13
2022-10-16T18:24:01.341Z,10.48
2022-10-16T18:26:28.949Z,10.70
2022-10-16T18:28:58.413Z,10.70
2022-10-16T18:31:26.837Z,9.57
2022-10-16T18:33:55.865Z,9.23
2022-10-16T18:36:29.696Z,8.77
2022-10-16T18:38:57.704Z,9.90
2022-10-16T18:41:26.555Z,10.35
2022-10-16T18:43:54.689Z,10.60
2022-10-16T18:46:24.516Z,11.77
2022-10-16T18:48:54.159Z,10.20
2022-10-16T18:51:52.888Z,8.10
2022-10-16T18:54:20.181Z,8.75
2022-10-16T18:56:47.201Z,9.60
2022-10-16T18:59:14.256Z,8.68
2022-10-16T19:01:42.641Z,10.43
2022-10-16T19:04:16.916Z,6.63
2022-10-16T19:06:51.810Z,10.30
2022-10-16T19:09:22.876Z,9.77
2022-10-16T19:14:18.302Z,7.95
2022-10-16T19:16:48.869Z,10.32
2022-10-16T19:19:20.907Z,11.13
2022-10-16T19:21:51.068Z,13.18
2022-10-16T19:24:18.200Z,10.68
2022-10-16T19:26:47.788Z,8.48
2022-10-16T19:29:14.837Z,8.15
2022-10-16T19:31:42.367Z,10.25
2022-10-16T19:34:11.539Z,10.45
2022-10-16T19:36:40.065Z,10.95
2022-10-16T19:39:15.286Z,7.40
2022-10-16T19:41:43.269Z,11.00
2022-10-16T19:44:14.492Z,12.02
2022-10-16T19:46:42.333Z,8.88
2022-10-16T19:49:13.918Z,9.45
2022-10-16T19:51:41.072Z,13.35
2022-10-16T19:54:13.515Z,8.70
2022-10-16T19:56:41.403Z,7.35
2022-10-16T19:59:13.050Z,9.68
2022-10-16T20:01:40.453Z,10.88
2022-10-16T20:04:07.476Z,7.90
2022-10-16T20:06:34.503Z,7.85
2022-10-16T20:09:01.838Z,9.55
2022-10-16T20:11:32.319Z,9.20
2022-10-16T20:14:00.213Z,11.05
2022-10-16T20:16:29.264Z,8.57
2022-10-16T20:18:56.434Z,9.77
2022-10-16T20:21:30.876Z,8.98
2022-10-16T20:24:01.218Z,6.65
2022-10-16T20:26:28.485Z,7.43
2022-10-16T20:28:55.734Z,9.18
2022-10-16T20:31:27.542Z,7.97
2022-10-16T20:33:57.142Z,7.47
2022-10-16T20:36:26.328Z,8.80
2022-10-16T20:38:54.163Z,9.77
2022-10-16T20:41:21.228Z,10.63
2022-10-16T20:43:50.633Z,9.05
2022-10-16T20:46:23.493Z,10.10
2022-10-16T20:48:51.234Z,10.30
2022-10-16T20:51:22.479Z,11.40
2022-10-16T20:54:04.860Z,7.43
2022-10-16T20:56:36.223Z,9.60
2022-10-16T20:59:04.410Z,8.50
2022-10-16T21:01:31.989Z,8.70
2022-10-16T21:04:02.348Z,13.57
2022-10-16T21:06:32.394Z,12.13
2022-10-16T21:09:03.003Z,6.55
2022-10-16T21:14:08.462Z,8.02
2022-10-16T21:16:35.870Z,8.95
2022-10-16T21:19:03.701Z,10.57
2022-10-16T21:21:34.356Z,12.00
2022-10-16T21:24:01.737Z,9.30
2022-10-16T21:26:30.319Z,13.15
2022-10-16T21:28:58.544Z,11.13
2022-10-16T21:31:25.692Z,9.70
2022-10-16T21:33:53.519Z,8.88
2022-10-16T21:36:30.432Z,10.45
2022-10-16T21:39:02.864Z,9.30
2022-10-16T21:41:30.357Z,15.60
2022-10-16T21:43:58.894Z,11.85
2022-10-16T21:46:29.372Z,9.98
2022-10-16T21:48:58.442Z,10.05
2022-10-16T21:51:33.996Z,10.32
2022-10-16T21:54:03.103Z,11.55
2022-10-16T21:56:30.394Z,10.10
2022-10-16T21:58:57.811Z,11.13
2022-10-16T22:01:27.135Z,9.68
2022-10-16T22:03:55.394Z,8.65
2022-10-16T22:06:27.590Z,8.65
2022-10-16T22:08:59.953Z,10.50
2022-10-16T22:11:37.213Z,8.75
2022-10-16T22:14:14.601Z,11.00
2022-10-16T22:16:42.444Z,9.02
2022-10-16T22:19:10.865Z,8.82
2022-10-16T22:21:40.692Z,9.35
2022-10-16T22:24:08.858Z,10.15
2022-10-16T22:26:36.682Z,8.93
2022-10-16T22:29:05.601Z,9.88
2022-10-16T22:31:32.999Z,9.15
2022-10-16T22:34:02.742Z,10.23
2022-10-16T22:36:30.069Z,7.60
2022-10-16T22:38:57.931Z,10.35
2022-10-16T22:41:25.466Z,10.48
2022-10-16T22:43:52.928Z,8.85
2022-10-16T22:46:26.732Z,8.98
2022-10-16T22:48:56.013Z,9.60
2022-10-16T22:51:25.022Z,8.30
2022-10-16T22:53:52.064Z,10.73
2022-10-16T22:56:21.061Z,9.23
2022-10-16T22:58:48.954Z,9.98
2022-10-16T23:01:26.086Z,10.18
2022-10-16T23:03:53.270Z,8.90
2022-10-16T23:06:20.231Z,9.95
2022-10-16T23:08:56.118Z,8.88
2022-10-16T23:11:23.626Z,10.77
2022-10-16T23:13:50.826Z,9.98
2022-10-16T23:16:20.592Z,8.45
2022-10-16T23:18:48.829Z,10.63
2022-10-16T23:21:24.212Z,18.52
2022-10-16T23:23:53.516Z,8.65
2022-10-16T23:26:24.489Z,8.43
2022-10-16T23:28:52.019Z,10.43
2022-10-16T23:31:19.891Z,13.07
2022-10-16T23:33:47.349Z,11.32
2022-10-16T23:36:18.205Z,10.23
2022-10-16T23:38:45.796Z,10.75
2022-10-16T23:41:14.161Z,9.57
2022-10-16T23:43:41.632Z,12.07
2022-10-16T23:46:11.146Z,12.63
2022-10-16T23:48:38.745Z,10.80
2022-10-16T23:51:09.249Z,11.48
2022-10-16T23:53:36.605Z,12.15
2022-10-16T23:56:03.838Z,14.40
2022-10-16T23:58:30.892Z,12.02
